Time;durP1;ratioP1;P1;durP2;ratioP2;P2;SDS_P1;SDS_P2;PMS_P1;PMS_P2;Temp;Humidity;BMP_temperature;BMP_pressure;BME280_temperature;BME280_humidity;BME280_pressure;Samples;Min_cycle;Max_cycle;Signal;HPM_P1;HPM_P2
2022/08/20 00:01:14;;;;;;;5.70;5.20;;;24.80;53.80;;;;;;5128285;27;45214;-70
2022/08/20 00:03:41;;;;;;;5.80;5.35;;;24.70;53.70;;;;;;5127826;27;45323;-70
2022/08/20 00:06:09;;;;;;;6.47;5.75;;;24.70;53.70;;;;;;5128461;27;45294;-71
2022/08/20 00:08:36;;;;;;;6.20;5.60;;;24.70;53.70;;;;;;5149300;27;45232;-71
2022/08/20 00:11:04;;;;;;;5.43;4.93;;;24.70;53.70;;;;;;5148557;27;46688;-70
2022/08/20 00:13:34;;;;;;;5.85;5.35;;;24.70;53.80;;;;;;5148914;27;45242;-71
2022/08/20 00:16:01;;;;;;;5.95;5.15;;;24.70;53.70;;;;;;5148881;27;45242;-71
2022/08/20 00:18:28;;;;;;;5.80;5.30;;;24.70;53.70;;;;;;5149124;27;45243;-71
2022/08/20 00:20:55;;;;;;;6.03;5.53;;;24.70;53.70;;;;;;5148558;27;46710;-71
2022/08/20 00:23:22;;;;;;;5.20;4.72;;;24.70;53.60;;;;;;5148558;27;45312;-71
2022/08/20 00:25:49;;;;;;;5.90;5.40;;;24.70;53.70;;;;;;5148870;27;45305;-71
2022/08/20 00:28:16;;;;;;;5.70;5.22;;;24.60;53.70;;;;;;5144637;27;45341;-71
2022/08/20 00:30:45;;;;;;;5.75;5.20;;;24.60;53.70;;;;;;5127469;27;45453;-71
2022/08/20 00:33:14;;;;;;;5.70;5.20;;;24.60;53.60;;;;;;5127632;27;45341;-71
2022/08/20 00:35:41;;;;;;;5.72;5.22;;;24.60;53.70;;;;;;5127974;27;45301;-71
2022/08/20 00:38:08;;;;;;;5.28;4.88;;;24.60;53.80;;;;;;5127507;27;45169;-71
2022/08/20 00:40:37;;;;;;;5.47;5.07;;;24.60;53.80;;;;;;5124874;27;46627;-71
2022/08/20 00:43:05;;;;;;;5.43;4.93;;;24.50;53.60;;;;;;5127328;27;45350;-71
2022/08/20 00:45:33;;;;;;;6.15;5.55;;;24.60;53.80;;;;;;5127802;27;45267;-71
2022/08/20 00:48:01;;;;;;;5.82;5.32;;;24.50;53.70;;;;;;5127972;27;45235;-71
2022/08/20 00:50:32;;;;;;;5.30;4.90;;;24.60;53.70;;;;;;5126970;27;45298;-70
2022/08/20 00:53:00;;;;;;;5.70;5.20;;;24.50;54.40;;;;;;5127134;27;45238;-70
2022/08/20 00:55:27;;;;;;;5.28;4.75;;;24.50;53.70;;;;;;5127530;27;45438;-71
2022/08/20 00:57:56;;;;;;;5.60;5.10;;;24.50;53.80;;;;;;5127742;27;45255;-71
2022/08/20 01:00:24;;;;;;;5.65;5.15;;;24.50;54.40;;;;;;5127196;27;45197;-70
2022/08/20 01:02:51;;;;;;;5.20;4.80;;;24.50;53.70;;;;;;5127375;27;45192;-71
2022/08/20 01:05:22;;;;;;;5.78;5.28;;;24.50;53.90;;;;;;5127472;27;45277;-71
2022/08/20 01:07:50;;;;;;;5.45;5.03;;;24.40;53.90;;;;;;5142939;27;45481;-71
2022/08/20 01:10:18;;;;;;;5.68;5.10;;;24.40;53.70;;;;;;5147902;27;45717;-71
2022/08/20 01:12:46;;;;;;;5.55;5.05;;;24.40;54.40;;;;;;5147905;27;45254;-70
2022/08/20 01:15:15;;;;;;;5.32;4.82;;;24.40;53.80;;;;;;5148107;27;45170;-71
2022/08/20 01:17:44;;;;;;;5.53;5.03;;;24.40;53.90;;;;;;5150637;27;45225;-71
2022/08/20 01:20:13;;;;;;;5.15;4.75;;;24.40;53.70;;;;;;5151465;27;45282;-71
2022/08/20 01:25:37;;;;;;;7.80;4.90;;;24.40;53.80;;;;;;5152014;27;45291;-70
2022/08/20 01:28:04;;;;;;;4.90;4.50;;;24.40;53.80;;;;;;5154264;27;45232;-71
2022/08/20 01:30:30;;;;;;;5.38;4.88;;;24.40;53.80;;;;;;5161294;27;46878;-70
2022/08/20 01:32:57;;;;;;;4.85;4.45;;;24.40;54.00;;;;;;5151412;27;45173;-69
2022/08/20 01:35:24;;;;;;;5.10;4.70;;;24.40;54.00;;;;;;5151418;27;45197;-68
2022/08/20 01:37:51;;;;;;;5.43;4.93;;;24.40;53.90;;;;;;5151344;27;45383;-71
2022/08/20 01:40:23;;;;;;;5.32;4.82;;;24.40;53.70;;;;;;5151105;27;46393;-71
2022/08/20 01:42:52;;;;;;;5.38;4.97;;;24.40;53.70;;;;;;5151450;27;45199;-71
2022/08/20 01:45:19;;;;;;;5.05;4.70;;;24.40;53.90;;;;;;5151433;27;45279;-71
2022/08/20 01:47:46;;;;;;;5.07;4.68;;;24.40;53.80;;;;;;5151445;27;45280;-71
2022/08/20 01:50:17;;;;;;;4.55;4.25;;;24.40;53.90;;;;;;5148397;27;45183;-71
2022/08/20 01:52:48;;;;;;;5.00;4.60;;;24.30;53.70;;;;;;5151051;27;45371;-70
2022/08/20 01:55:15;;;;;;;5.03;4.53;;;24.40;53.90;;;;;;5150800;27;45181;-70
2022/08/20 01:57:42;;;;;;;5.97;4.43;;;24.40;53.90;;;;;;5142992;27;45456;-71
2022/08/20 02:00:13;;;;;;;4.75;4.35;;;24.30;53.90;;;;;;5150783;27;45353;-71
2022/08/20 02:02:40;;;;;;;5.00;4.60;;;24.30;53.70;;;;;;5151079;27;45259;-71
2022/08/20 02:05:08;;;;;;;4.85;4.45;;;24.30;53.70;;;;;;5150994;27;45224;-71
2022/08/20 02:07:34;;;;;;;4.90;4.50;;;24.30;53.90;;;;;;5151140;27;45339;-71
2022/08/20 02:10:01;;;;;;;4.90;4.50;;;24.30;53.80;;;;;;5150911;27;47305;-71
2022/08/20 02:12:28;;;;;;;5.30;4.80;;;24.30;53.90;;;;;;5150789;27;45319;-71
2022/08/20 02:14:55;;;;;;;4.80;4.40;;;24.30;53.80;;;;;;5150849;27;45213;-71
2022/08/20 02:17:24;;;;;;;4.97;4.47;;;24.30;53.90;;;;;;5151214;27;45445;-71
2022/08/20 02:19:53;;;;;;;4.95;4.60;;;24.30;53.80;;;;;;5150632;27;46380;-70
2022/08/20 02:22:21;;;;;;;5.00;4.60;;;24.30;53.90;;;;;;5150862;27;45268;-71
2022/08/20 02:24:48;;;;;;;4.97;4.45;;;24.30;53.70;;;;;;5150705;27;45310;-71
2022/08/20 02:27:15;;;;;;;4.97;4.63;;;24.30;53.80;;;;;;5150754;27;45290;-71
2022/08/20 02:29:42;;;;;;;4.80;4.40;;;24.30;53.70;;;;;;5153121;27;46322;-71
2022/08/20 02:32:08;;;;;;;5.03;4.63;;;24.30;53.70;;;;;;5171260;27;45163;-71
2022/08/20 02:34:37;;;;;;;4.78;4.38;;;24.30;53.70;;;;;;5171561;27;45201;-71
2022/08/20 02:37:04;;;;;;;5.05;4.65;;;24.30;53.80;;;;;;5171513;27;45250;-71
2022/08/20 02:39:30;;;;;;;4.32;4.03;;;24.30;53.70;;;;;;5171197;27;45278;-71
2022/08/20 02:41:57;;;;;;;4.88;4.40;;;24.30;53.70;;;;;;5171063;27;45267;-70
2022/08/20 02:44:24;;;;;;;5.13;4.70;;;24.30;53.90;;;;;;5171332;27;45177;-70
2022/08/20 02:46:51;;;;;;;5.10;4.60;;;24.30;53.90;;;;;;5171470;27;45233;-70
2022/08/20 02:49:18;;;;;;;4.68;4.28;;;24.30;53.80;;;;;;5171215;27;46556;-70
2022/08/20 02:51:46;;;;;;;4.47;4.07;;;24.30;53.90;;;;;;5171235;27;45242;-71
2022/08/20 02:54:13;;;;;;;4.30;4.00;;;24.30;53.80;;;;;;5171286;27;45315;-71
2022/08/20 02:56:40;;;;;;;4.35;3.97;;;24.30;54.00;;;;;;5171322;27;45178;-71
2022/08/20 02:59:07;;;;;;;4.88;4.47;;;24.30;53.80;;;;;;5171036;27;45292;-70
2022/08/20 03:01:35;;;;;;;4.70;4.30;;;24.20;53.80;;;;;;5170842;27;45317;-71
2022/08/20 03:04:02;;;;;;;4.65;4.25;;;24.30;53.90;;;;;;5171300;27;45208;-71
2022/08/20 03:06:29;;;;;;;4.85;4.30;;;24.20;53.90;;;;;;5166958;27;45209;-71
2022/08/20 03:08:57;;;;;;;5.00;4.60;;;24.20;53.90;;;;;;5149612;27;45271;-71
2022/08/20 03:11:24;;;;;;;4.30;3.90;;;24.20;53.90;;;;;;5149630;27;45329;-72
2022/08/20 03:13:51;;;;;;;4.57;4.18;;;24.30;53.90;;;;;;5149885;27;45296;-71
2022/08/20 03:16:17;;;;;;;4.50;4.10;;;24.30;53.70;;;;;;5150003;27;45271;-72
2022/08/20 03:18:45;;;;;;;5.45;5.00;;;24.30;53.70;;;;;;5149444;27;45222;-71
2022/08/20 03:21:12;;;;;;;4.32;4.03;;;24.30;53.70;;;;;;5149472;27;45197;-71
2022/08/20 03:23:39;;;;;;;4.20;3.90;;;24.30;53.70;;;;;;5149825;27;45290;-71
2022/08/20 03:26:09;;;;;;;5.43;4.18;;;24.30;53.60;;;;;;5149750;27;44927;-71
2022/08/20 03:28:36;;;;;;;4.53;4.13;;;24.30;53.60;;;;;;5149128;27;45231;-70
2022/08/20 03:31:03;;;;;;;4.75;4.35;;;24.30;53.60;;;;;;5164841;27;45257;-70
2022/08/20 03:33:30;;;;;;;4.50;4.10;;;24.30;53.60;;;;;;5170801;27;45257;-70
2022/08/20 03:35:57;;;;;;;4.80;4.40;;;24.30;53.60;;;;;;5170853;27;45273;-71
2022/08/20 03:38:24;;;;;;;4.68;4.28;;;24.30;53.60;;;;;;5170083;27;46456;-71
2022/08/20 03:40:51;;;;;;;4.35;3.95;;;24.30;53.70;;;;;;5166225;27;45191;-70
2022/08/20 03:43:19;;;;;;;4.63;4.22;;;24.30;54.20;;;;;;5170412;27;45138;-70
2022/08/20 03:45:46;;;;;;;5.05;4.65;;;24.30;53.60;;;;;;5170541;27;45358;-70
2022/08/20 03:48:14;;;;;;;4.68;4.28;;;24.30;53.60;;;;;;5170019;27;45284;-71
2022/08/20 03:50:41;;;;;;;4.65;4.28;;;24.30;53.60;;;;;;5170183;27;45237;-71
2022/08/20 03:53:08;;;;;;;4.28;3.92;;;24.30;53.60;;;;;;5170096;27;45174;-71
2022/08/20 03:55:35;;;;;;;4.38;4.05;;;24.30;53.60;;;;;;5170307;27;45343;-70
2022/08/20 03:58:05;;;;;;;4.45;4.07;;;24.30;53.70;;;;;;5169820;27;45424;-71
2022/08/20 04:00:34;;;;;;;4.50;4.10;;;24.30;53.70;;;;;;5170049;27;45219;-71
2022/08/20 04:03:01;;;;;;;4.90;4.50;;;24.30;53.70;;;;;;5170314;27;45227;-71
2022/08/20 04:05:28;;;;;;;4.22;3.88;;;24.30;53.70;;;;;;5170092;27;45402;-71
2022/08/20 04:07:56;;;;;;;4.18;3.88;;;24.30;53.70;;;;;;5152972;27;46423;-71
2022/08/20 04:10:23;;;;;;;4.18;3.88;;;24.30;53.70;;;;;;5148828;27;45208;-71
2022/08/20 04:12:50;;;;;;;4.75;4.32;;;24.20;53.70;;;;;;5148787;27;45369;-71
2022/08/20 04:15:17;;;;;;;3.97;3.67;;;24.20;54.30;;;;;;5148858;27;45438;-71
2022/08/20 04:17:47;;;;;;;4.38;3.97;;;24.20;53.70;;;;;;5148507;27;45552;-71
2022/08/20 04:20:15;;;;;;;4.35;3.95;;;24.20;53.70;;;;;;5148596;27;45510;-71
2022/08/20 04:22:42;;;;;;;4.40;4.00;;;24.30;53.70;;;;;;5148585;27;45291;-71
2022/08/20 04:25:09;;;;;;;4.15;3.85;;;24.20;53.70;;;;;;5149008;27;45295;-71
2022/08/20 04:27:36;;;;;;;4.47;4.07;;;24.20;53.60;;;;;;5148744;27;46334;-70
2022/08/20 04:30:04;;;;;;;4.47;4.18;;;24.20;53.70;;;;;;5161628;27;45207;-71
2022/08/20 04:32:31;;;;;;;4.47;4.15;;;24.20;53.70;;;;;;5148690;27;45362;-70
2022/08/20 04:35:00;;;;;;;4.18;3.85;;;24.20;53.70;;;;;;5148632;27;45276;-70
2022/08/20 04:37:26;;;;;;;4.63;4.22;;;24.20;53.70;;;;;;5147886;27;46381;-71
2022/08/20 04:42:52;;;;;;;4.47;4.10;;;24.20;53.70;;;;;;5063901;28;45371;-71
2022/08/20 04:45:19;;;;;;;4.88;4.47;;;24.20;53.70;;;;;;5064250;28;45472;-70
2022/08/20 04:47:46;;;;;;;4.60;4.20;;;24.20;53.70;;;;;;5100356;27;46683;-71
2022/08/20 04:50:14;;;;;;;4.00;3.70;;;24.20;53.70;;;;;;5148125;27;45243;-71
2022/08/20 04:52:41;;;;;;;4.40;4.00;;;24.20;54.30;;;;;;5152941;27;45316;-71
2022/08/20 04:55:09;;;;;;;4.47;4.05;;;24.20;53.70;;;;;;5155452;27;45223;-71
2022/08/20 04:57:37;;;;;;;4.25;3.90;;;24.20;53.70;;;;;;5155089;27;46324;-70
2022/08/20 05:00:05;;;;;;;4.10;3.70;;;24.20;53.60;;;;;;5155342;27;45188;-70
2022/08/20 05:02:34;;;;;;;3.80;3.50;;;24.20;53.70;;;;;;5155389;27;45380;-70
2022/08/20 05:05:00;;;;;;;4.43;4.10;;;24.20;53.70;;;;;;5155335;27;45402;-71
2022/08/20 05:07:29;;;;;;;4.25;3.85;;;24.20;53.70;;;;;;5142206;27;46397;-71
2022/08/20 05:09:55;;;;;;;3.65;3.35;;;24.20;53.60;;;;;;5134091;27;45398;-71
2022/08/20 05:12:22;;;;;;;4.22;3.92;;;24.20;53.60;;;;;;5133916;27;45233;-70
2022/08/20 05:14:49;;;;;;;3.72;3.42;;;24.20;53.60;;;;;;5134214;27;45396;-71
2022/08/20 05:17:20;;;;;;;3.97;3.63;;;24.20;53.60;;;;;;5134102;27;45239;-70
2022/08/20 05:19:46;;;;;;;4.03;3.72;;;24.20;53.50;;;;;;5134157;27;45379;-71
2022/08/20 05:22:13;;;;;;;4.50;4.10;;;24.20;53.50;;;;;;5133987;27;45317;-71
2022/08/20 05:24:41;;;;;;;3.97;3.65;;;24.20;53.50;;;;;;5134312;27;45369;-71
2022/08/20 05:27:08;;;;;;;3.92;3.63;;;24.20;53.50;;;;;;5133841;27;46321;-71
2022/08/20 05:29:35;;;;;;;4.35;4.05;;;24.20;53.50;;;;;;5139263;27;45287;-70
2022/08/20 05:32:02;;;;;;;3.95;3.53;;;24.20;53.50;;;;;;5175701;27;45309;-70
2022/08/20 05:34:29;;;;;;;4.00;3.70;;;24.10;53.50;;;;;;5175821;27;45588;-70
2022/08/20 05:36:56;;;;;;;4.00;3.70;;;24.10;53.50;;;;;;5175128;27;45210;-70
2022/08/20 05:39:23;;;;;;;4.10;3.78;;;24.20;53.50;;;;;;5175512;27;45171;-70
2022/08/20 05:41:51;;;;;;;3.88;3.58;;;24.20;54.20;;;;;;5175850;27;45163;-70
2022/08/20 05:44:18;;;;;;;3.92;3.50;;;24.10;53.60;;;;;;5175647;27;45278;-70
2022/08/20 05:46:46;;;;;;;3.75;3.45;;;24.10;53.50;;;;;;5175498;27;45505;-70
2022/08/20 05:49:14;;;;;;;3.78;3.47;;;24.10;53.60;;;;;;5175351;27;45267;-70
2022/08/20 05:51:41;;;;;;;3.90;3.60;;;24.20;53.60;;;;;;5175473;27;45261;-71
2022/08/20 05:54:08;;;;;;;4.18;3.78;;;24.10;53.50;;;;;;5175596;27;45203;-70
2022/08/20 05:56:36;;;;;;;4.20;3.80;;;24.10;53.60;;;;;;5175204;27;45451;-70
2022/08/20 05:59:04;;;;;;;4.00;3.70;;;24.10;53.50;;;;;;5175080;27;45222;-70
2022/08/20 06:01:31;;;;;;;3.58;3.28;;;24.10;53.50;;;;;;5175248;27;45299;-70
2022/08/20 06:06:42;;;;;;;3.95;3.65;;;24.10;53.80;;;;;;5162717;27;45281;-70
2022/08/20 06:09:09;;;;;;;3.58;3.38;;;24.10;53.50;;;;;;5150475;27;45253;-70
2022/08/20 06:11:36;;;;;;;3.88;3.58;;;24.10;53.50;;;;;;5150707;27;45218;-70
2022/08/20 06:14:04;;;;;;;3.95;3.65;;;24.10;53.50;;;;;;5150659;27;45252;-70
2022/08/20 06:16:31;;;;;;;3.30;3.00;;;24.10;53.50;;;;;;5150121;27;45920;-70
2022/08/20 06:18:58;;;;;;;3.40;3.10;;;24.10;53.50;;;;;;5150391;27;45338;-70
2022/08/20 06:21:25;;;;;;;3.78;3.47;;;24.10;53.50;;;;;;5150524;27;45246;-70
2022/08/20 06:23:51;;;;;;;3.78;3.47;;;24.10;53.50;;;;;;5150614;27;45395;-70
2022/08/20 06:26:18;;;;;;;3.75;3.45;;;24.10;53.50;;;;;;5150136;27;46748;-71
2022/08/20 06:28:45;;;;;;;3.67;3.38;;;24.10;53.60;;;;;;5154321;27;45294;-70
2022/08/20 06:31:13;;;;;;;3.67;3.40;;;24.10;53.60;;;;;;5154577;27;45306;-71
2022/08/20 06:33:41;;;;;;;3.95;3.58;;;24.10;53.60;;;;;;5150416;27;45230;-71
2022/08/20 06:36:08;;;;;;;3.53;3.22;;;24.10;54.20;;;;;;5149952;27;45538;-70
2022/08/20 06:38:35;;;;;;;3.53;3.22;;;24.10;53.70;;;;;;5150276;27;45353;-70
2022/08/20 06:41:02;;;;;;;3.60;3.30;;;24.10;53.60;;;;;;5150335;27;45268;-70
2022/08/20 06:43:30;;;;;;;3.70;3.40;;;24.10;53.60;;;;;;5149991;27;45294;-71
2022/08/20 06:45:57;;;;;;;3.20;3.00;;;24.10;53.60;;;;;;5149740;27;46656;-70
2022/08/20 06:48:25;;;;;;;3.90;3.60;;;24.00;53.50;;;;;;5149857;27;45181;-70
2022/08/20 06:50:52;;;;;;;3.35;3.08;;;24.10;53.60;;;;;;5150011;27;45212;-70
2022/08/20 06:53:20;;;;;;;2.95;2.75;;;24.00;53.60;;;;;;5150112;27;45293;-71
2022/08/20 06:55:55;;;;;;;3.45;3.08;;;24.10;53.60;;;;;;5149700;27;46449;-70
2022/08/20 06:58:21;;;;;;;3.20;2.90;;;24.10;54.30;;;;;;5149785;27;45173;-70
2022/08/20 07:00:48;;;;;;;3.15;2.95;;;24.00;53.60;;;;;;5149731;27;45146;-70
2022/08/20 07:03:15;;;;;;;3.35;3.05;;;24.00;53.50;;;;;;5149686;27;45386;-70
2022/08/20 07:05:44;;;;;;;2.85;2.53;;;24.00;53.60;;;;;;5149549;27;45667;-70
2022/08/20 07:08:12;;;;;;;3.33;3.03;;;24.10;53.60;;;;;;5130841;27;45502;-71
2022/08/20 07:10:40;;;;;;;3.05;2.85;;;24.00;53.70;;;;;;5129102;27;45343;-70
2022/08/20 07:13:06;;;;;;;2.80;2.60;;;24.00;53.70;;;;;;5128724;27;45465;-70
2022/08/20 07:15:33;;;;;;;3.55;3.25;;;24.10;53.70;;;;;;5128380;27;46338;-70
2022/08/20 07:18:02;;;;;;;2.78;2.58;;;24.00;53.60;;;;;;5128546;27;45315;-70
2022/08/20 07:20:30;;;;;;;3.30;3.00;;;24.00;53.70;;;;;;5128667;27;45260;-70
2022/08/20 07:22:59;;;;;;;3.13;2.92;;;24.00;53.60;;;;;;5128878;27;45486;-70
2022/08/20 07:25:26;;;;;;;3.13;2.83;;;24.00;53.60;;;;;;5128377;27;46385;-70
2022/08/20 07:27:53;;;;;;;2.97;2.78;;;24.00;53.50;;;;;;5128315;27;45249;-70
2022/08/20 07:33:06;;;;;;;2.78;2.58;;;24.00;53.70;;;;;;5167813;27;45381;-70
2022/08/20 07:35:33;;;;;;;3.58;3.28;;;24.00;53.60;;;;;;5170117;27;46417;-70
2022/08/20 07:38:01;;;;;;;2.88;2.67;;;24.10;53.70;;;;;;5169935;27;45278;-70
2022/08/20 07:40:30;;;;;;;2.95;2.75;;;24.10;53.50;;;;;;5170200;27;45158;-70
2022/08/20 07:42:59;;;;;;;2.72;2.53;;;24.10;53.50;;;;;;5170315;27;45229;-70
2022/08/20 07:45:26;;;;;;;3.10;2.90;;;24.10;53.50;;;;;;5168622;27;46656;-70
2022/08/20 07:47:53;;;;;;;2.35;2.22;;;24.10;53.90;;;;;;5169931;27;45199;-71
2022/08/20 07:50:21;;;;;;;2.85;2.50;;;24.10;53.60;;;;;;5170113;27;45234;-70
2022/08/20 07:52:51;;;;;;;2.55;2.30;;;24.10;54.10;;;;;;5169889;27;45465;-70
2022/08/20 07:55:19;;;;;;;2.53;2.33;;;24.10;55.60;;;;;;5169556;27;46816;-71
2022/08/20 07:57:47;;;;;;;2.90;2.60;;;24.10;56.00;;;;;;5169781;27;45309;-70
2022/08/20 08:00:16;;;;;;;2.40;2.20;;;24.10;55.50;;;;;;5169541;27;45237;-70
2022/08/20 08:02:43;;;;;;;1.92;1.83;;;24.10;55.90;;;;;;5168695;27;45156;-71
2022/08/20 08:05:10;;;;;;;2.20;2.10;;;24.20;55.30;;;;;;5169513;27;46404;-70
2022/08/20 08:07:37;;;;;;;2.30;2.20;;;24.20;55.20;;;;;;5169628;27;45306;-71
2022/08/20 08:10:05;;;;;;;2.10;1.90;;;24.20;55.30;;;;;;5170086;27;45334;-70
2022/08/20 08:12:36;;;;;;;3.15;2.10;;;24.30;55.30;;;;;;5169836;27;45283;-70
2022/08/20 08:15:03;;;;;;;2.00;1.80;;;24.30;55.10;;;;;;5169383;27;47491;-71
2022/08/20 08:17:30;;;;;;;1.85;1.75;;;24.30;55.40;;;;;;5169550;27;45170;-70
2022/08/20 08:19:58;;;;;;;2.33;1.83;;;24.30;55.40;;;;;;5169596;27;45302;-70
2022/08/20 08:22:25;;;;;;;2.40;1.90;;;24.40;55.40;;;;;;5169529;27;45407;-71
2022/08/20 08:24:52;;;;;;;1.90;1.80;;;24.40;55.50;;;;;;5169514;27;45257;-71
2022/08/20 08:27:18;;;;;;;2.13;1.92;;;24.40;55.50;;;;;;5168662;27;45350;-71
2022/08/20 08:29:48;;;;;;;2.08;1.80;;;24.50;55.40;;;;;;5149393;27;45315;-71
2022/08/20 08:32:15;;;;;;;2.33;1.73;;;24.50;55.50;;;;;;5165715;27;45399;-71
2022/08/20 08:34:46;;;;;;;2.30;2.10;;;24.50;55.40;;;;;;5168993;27;45467;-71
2022/08/20 08:37:13;;;;;;;2.00;1.80;;;24.50;55.40;;;;;;5168830;27;45514;-71
2022/08/20 08:39:41;;;;;;;2.20;2.00;;;24.60;55.50;;;;;;5166837;27;45463;-70
2022/08/20 08:42:16;;;;;;;1.92;1.83;;;24.60;55.30;;;;;;5169313;27;45537;-70
2022/08/20 08:44:43;;;;;;;1.67;1.58;;;24.60;55.60;;;;;;5169225;27;45513;-71
2022/08/20 08:47:17;;;;;;;1.77;1.63;;;24.60;55.40;;;;;;5169048;27;45313;-70
2022/08/20 08:49:45;;;;;;;1.98;1.88;;;24.60;55.30;;;;;;5169160;27;45251;-71
2022/08/20 08:52:13;;;;;;;2.58;1.90;;;24.60;55.50;;;;;;5169317;27;45191;-71
2022/08/20 08:54:40;;;;;;;1.48;1.38;;;24.60;55.60;;;;;;5168827;27;45307;-71
2022/08/20 08:57:07;;;;;;;1.80;1.70;;;24.60;55.60;;;;;;5168907;27;45326;-71
2022/08/20 08:59:34;;;;;;;1.75;1.38;;;24.60;55.90;;;;;;5168852;27;45235;-71
2022/08/20 09:02:01;;;;;;;1.50;1.40;;;24.60;56.20;;;;;;5169134;27;45518;-70
2022/08/20 09:04:31;;;;;;;1.50;1.40;;;24.60;55.90;;;;;;5168441;27;45194;-72
2022/08/20 09:06:58;;;;;;;1.67;1.40;;;24.60;55.90;;;;;;5160283;27;45410;-71
2022/08/20 09:09:27;;;;;;;1.60;1.50;;;24.60;55.60;;;;;;5148021;27;45325;-71
2022/08/20 09:11:55;;;;;;;1.52;1.42;;;24.60;56.00;;;;;;5148042;27;45209;-70
2022/08/20 09:14:23;;;;;;;1.58;1.48;;;24.70;56.10;;;;;;5147480;27;45277;-70
2022/08/20 09:16:50;;;;;;;1.20;1.10;;;24.60;56.50;;;;;;5146984;27;45345;-70
2022/08/20 09:19:17;;;;;;;1.42;1.33;;;24.60;56.00;;;;;;5148107;27;45243;-70
2022/08/20 09:21:45;;;;;;;1.27;1.20;;;24.60;56.60;;;;;;5148082;27;45431;-71
2022/08/20 09:24:12;;;;;;;1.33;1.23;;;24.60;56.90;;;;;;5147437;27;46677;-72
2022/08/20 09:26:39;;;;;;;1.38;1.27;;;24.70;56.70;;;;;;5147442;27;45279;-71
2022/08/20 09:29:06;;;;;;;1.70;1.38;;;24.70;56.70;;;;;;5154711;27;45405;-70
2022/08/20 09:31:32;;;;;;;1.10;1.10;;;24.70;56.70;;;;;;5148815;27;45187;-71
2022/08/20 09:33:59;;;;;;;1.20;1.20;;;24.70;56.70;;;;;;5147184;27;45287;-71
2022/08/20 09:36:26;;;;;;;1.15;1.05;;;24.70;56.70;;;;;;5140780;27;45359;-71
2022/08/20 09:38:54;;;;;;;1.00;1.00;;;24.70;56.90;;;;;;5148296;27;45318;-71
2022/08/20 09:41:21;;;;;;;1.35;1.35;;;24.70;56.70;;;;;;5151184;27;45235;-72
2022/08/20 09:43:48;;;;;;;1.15;1.10;;;24.70;56.50;;;;;;5151013;27;45281;-70
2022/08/20 09:46:15;;;;;;;1.40;1.30;;;24.70;56.50;;;;;;5150114;27;45240;-71
2022/08/20 09:48:42;;;;;;;1.10;1.10;;;24.80;56.60;;;;;;5149628;27;45448;-72
2022/08/20 09:51:08;;;;;;;1.10;1.10;;;24.80;56.50;;;;;;5150818;27;45481;-71
2022/08/20 09:53:35;;;;;;;2.22;1.30;;;24.80;56.30;;;;;;5150142;27;45414;-71
2022/08/20 09:56:04;;;;;;;1.05;1.02;;;24.80;56.00;;;;;;5150420;27;45254;-71
2022/08/20 09:58:34;;;;;;;1.00;1.00;;;24.90;56.70;;;;;;5129560;27;45205;-71
2022/08/20 10:01:03;;;;;;;1.20;1.20;;;24.90;56.50;;;;;;5129864;27;45268;-71
2022/08/20 10:03:30;;;;;;;1.40;0.90;;;24.90;57.50;;;;;;5129250;27;45481;-71
2022/08/20 10:05:56;;;;;;;1.00;1.00;;;25.00;57.20;;;;;;5140796;27;45127;-71
2022/08/20 10:08:23;;;;;;;1.08;1.02;;;25.00;57.40;;;;;;5150419;27;45313;-71
2022/08/20 10:10:50;;;;;;;1.67;1.35;;;25.00;58.20;;;;;;5150620;27;45345;-71
2022/08/20 10:13:18;;;;;;;1.10;1.10;;;25.00;57.20;;;;;;5150050;27;47293;-71
2022/08/20 10:15:45;;;;;;;1.17;1.00;;;25.10;57.90;;;;;;5149844;27;45253;-71
2022/08/20 10:18:12;;;;;;;1.15;1.10;;;25.10;57.30;;;;;;5150306;27;45274;-71
2022/08/20 10:20:39;;;;;;;1.10;1.00;;;25.10;57.50;;;;;;5150559;27;45378;-71
2022/08/20 10:23:06;;;;;;;1.08;1.08;;;25.10;57.00;;;;;;5150109;27;46455;-71
2022/08/20 10:25:33;;;;;;;1.27;1.00;;;25.10;57.00;;;;;;5150229;27;45187;-71
2022/08/20 10:28:00;;;;;;;0.90;0.90;;;25.10;56.70;;;;;;5149859;27;45316;-72
2022/08/20 10:30:28;;;;;;;1.10;0.90;;;25.20;57.60;;;;;;5158885;27;45335;-71
2022/08/20 10:32:55;;;;;;;0.82;0.82;;;25.20;57.00;;;;;;5149855;27;45228;-72
2022/08/20 10:35:22;;;;;;;0.82;0.82;;;25.20;57.20;;;;;;5148869;27;45299;-71
2022/08/20 10:37:48;;;;;;;1.48;1.05;;;25.20;57.20;;;;;;5149476;27;45194;-71
2022/08/20 10:40:16;;;;;;;1.10;0.88;;;25.20;56.50;;;;;;5150252;27;45618;-71
2022/08/20 10:42:43;;;;;;;1.33;1.00;;;25.20;56.10;;;;;;5138704;27;46673;-71
2022/08/20 10:45:10;;;;;;;0.70;0.70;;;25.30;55.90;;;;;;5128803;27;45254;-72
2022/08/20 10:47:39;;;;;;;1.90;1.00;;;25.30;57.20;;;;;;5129233;27;45306;-71
2022/08/20 10:50:08;;;;;;;0.77;0.77;;;25.40;57.30;;;;;;5128970;27;45310;-72
2022/08/20 10:52:35;;;;;;;0.90;0.90;;;25.40;57.30;;;;;;5128739;27;45436;-71
2022/08/20 10:55:03;;;;;;;0.80;0.80;;;25.50;58.30;;;;;;5128871;27;45321;-71
2022/08/20 10:57:30;;;;;;;0.98;0.90;;;25.50;57.20;;;;;;5129428;27;45271;-72
2022/08/20 10:59:58;;;;;;;0.82;0.82;;;25.60;57.70;;;;;;5128480;27;45455;-71
2022/08/20 11:02:25;;;;;;;0.90;0.90;;;25.60;57.60;;;;;;5128815;27;45489;-70
2022/08/20 11:04:53;;;;;;;1.35;1.00;;;25.60;57.80;;;;;;5128583;27;45307;-71
2022/08/20 11:07:21;;;;;;;1.13;1.00;;;25.70;57.80;;;;;;5139990;27;45395;-73
2022/08/20 11:09:48;;;;;;;0.80;0.80;;;25.70;57.40;;;;;;5150212;27;45138;-71
2022/08/20 11:12:16;;;;;;;0.90;0.80;;;25.80;57.60;;;;;;5149755;27;46336;-72
2022/08/20 11:14:42;;;;;;;0.70;0.70;;;25.80;57.40;;;;;;5148663;27;45346;-72
2022/08/20 11:17:09;;;;;;;0.90;0.77;;;25.80;57.90;;;;;;5149554;27;45244;-71
2022/08/20 11:19:39;;;;;;;2.15;0.90;;;25.80;57.00;;;;;;5149973;27;45231;-71
2022/08/20 11:22:07;;;;;;;2.40;0.98;;;25.80;57.10;;;;;;5149473;27;46380;-72
2022/08/20 11:24:34;;;;;;;2.00;0.77;;;25.80;57.00;;;;;;5148310;27;45305;-72
2022/08/20 11:27:01;;;;;;;0.73;0.73;;;25.90;57.30;;;;;;5142327;27;45200;-72
2022/08/20 11:29:28;;;;;;;0.60;0.60;;;25.90;57.20;;;;;;5158139;27;45434;-71
2022/08/20 11:31:55;;;;;;;1.13;0.85;;;25.90;56.90;;;;;;5149189;27;45233;-72
2022/08/20 11:34:21;;;;;;;0.80;0.80;;;25.90;56.80;;;;;;5149119;27;45384;-70
2022/08/20 11:36:48;;;;;;;0.70;0.70;;;26.00;57.00;;;;;;5148899;27;45188;-70
2022/08/20 11:39:17;;;;;;;0.70;0.70;;;26.00;56.70;;;;;;5149512;27;45454;-71
2022/08/20 11:41:44;;;;;;;0.95;0.95;;;26.10;56.60;;;;;;5149098;27;46282;-73
2022/08/20 11:44:11;;;;;;;1.45;0.80;;;26.20;57.10;;;;;;5149032;27;45362;-71
2022/08/20 11:46:38;;;;;;;0.80;0.80;;;26.30;56.50;;;;;;5148662;27;45291;-71
2022/08/20 11:49:04;;;;;;;1.13;0.88;;;26.40;56.30;;;;;;5149162;27;45218;-70
2022/08/20 11:51:32;;;;;;;0.63;0.63;;;26.40;56.10;;;;;;5149087;27;45224;-70
2022/08/20 11:53:59;;;;;;;1.02;0.88;;;26.50;56.00;;;;;;5148770;27;45184;-70
2022/08/20 11:56:27;;;;;;;0.80;0.80;;;26.50;56.00;;;;;;5149156;27;45324;-71
2022/08/20 11:58:54;;;;;;;0.75;0.75;;;26.50;56.10;;;;;;5148726;27;45321;-70
2022/08/20 12:01:21;;;;;;;0.80;0.80;;;26.50;55.80;;;;;;5146621;27;46714;-71
2022/08/20 12:03:47;;;;;;;0.80;0.80;;;26.60;55.70;;;;;;5148069;27;45406;-71
2022/08/20 12:06:14;;;;;;;0.85;0.70;;;26.60;55.90;;;;;;5147873;27;45248;-71
2022/08/20 12:08:41;;;;;;;0.70;0.70;;;26.60;55.70;;;;;;5147948;27;45492;-70
2022/08/20 12:11:08;;;;;;;0.60;0.60;;;26.50;55.70;;;;;;5142736;27;45495;-71
2022/08/20 12:13:36;;;;;;;0.80;0.80;;;26.60;55.60;;;;;;5134949;27;45205;-71
2022/08/20 12:16:04;;;;;;;0.70;0.70;;;26.70;55.70;;;;;;5148377;27;45207;-71
2022/08/20 12:18:31;;;;;;;0.93;0.65;;;26.70;55.50;;;;;;5148252;27;45513;-72
2022/08/20 12:20:58;;;;;;;2.08;1.10;;;26.80;55.10;;;;;;5147090;27;45432;-70
2022/08/20 12:23:25;;;;;;;3.03;1.05;;;26.90;55.80;;;;;;5148708;27;45208;-70
2022/08/20 12:25:52;;;;;;;1.25;0.88;;;27.00;55.80;;;;;;5148302;27;45246;-71
2022/08/20 12:28:18;;;;;;;1.13;0.98;;;27.10;55.80;;;;;;5148601;27;45403;-70
2022/08/20 12:30:47;;;;;;;0.90;0.90;;;27.20;55.90;;;;;;5153430;27;47318;-70
2022/08/20 12:33:14;;;;;;;1.50;1.00;;;27.30;55.90;;;;;;5168916;27;45336;-71
2022/08/20 12:35:40;;;;;;;1.17;1.08;;;27.20;56.00;;;;;;5165966;27;45233;-70
2022/08/20 12:38:07;;;;;;;1.00;0.90;;;27.20;56.00;;;;;;5129133;27;45498;-70
2022/08/20 12:40:34;;;;;;;2.03;0.90;;;27.20;56.70;;;;;;5126132;27;46445;-70
2022/08/20 12:43:01;;;;;;;2.65;0.85;;;27.20;56.00;;;;;;5126591;27;45218;-70
2022/08/20 12:45:28;;;;;;;0.88;0.88;;;27.10;54.50;;;;;;5126745;27;45260;-70
2022/08/20 12:48:01;;;;;;;1.10;1.10;;;27.20;53.90;;;;;;5126385;27;45340;-70
2022/08/20 12:50:27;;;;;;;0.60;0.60;;;27.20;53.90;;;;;;5126747;27;46385;-70
2022/08/20 12:52:55;;;;;;;0.80;0.80;;;27.10;53.70;;;;;;5126727;27;45307;-70
2022/08/20 12:55:22;;;;;;;0.82;0.80;;;27.00;53.80;;;;;;5126777;27;45204;-70
2022/08/20 12:57:50;;;;;;;2.88;0.80;;;26.90;52.90;;;;;;5127244;27;45153;-70
2022/08/20 13:00:19;;;;;;;1.98;0.80;;;26.70;53.60;;;;;;5126750;27;45436;-70